sensor_id;sensor_type;location;lat;lon;timestamp;temperature;humidity
21759;DHT22;11041;50.854;20.580;2023-02-28T00:01:31;0.60;99.90
21759;DHT22;11041;50.854;20.580;2023-02-28T00:03:58;0.60;99.90
21759;DHT22;11041;50.854;20.580;2023-02-28T00:06:25;0.60;99.90
21759;DHT22;11041;50.854;20.580;2023-02-28T00:08:53;0.60;99.90
21759;DHT22;11041;50.854;20.580;2023-02-28T00:11:21;0.60;99.90
21759;DHT22;11041;50.854;20.580;2023-02-28T00:13:48;0.60;99.90
21759;DHT22;11041;50.854;20.580;2023-02-28T00:16:20;0.60;99.90
21759;DHT22;11041;50.854;20.580;2023-02-28T00:18:48;0.50;99.90
21759;DHT22;11041;50.854;20.580;2023-02-28T00:21:16;0.50;99.90
21759;DHT22;11041;50.854;20.580;2023-02-28T00:23:44;0.50;99.90
21759;DHT22;11041;50.854;20.580;2023-02-28T00:26:11;0.50;99.90
21759;DHT22;11041;50.854;20.580;2023-02-28T00:28:38;0.40;99.90
21759;DHT22;11041;50.854;20.580;2023-02-28T00:31:05;0.40;99.90
21759;DHT22;11041;50.854;20.580;2023-02-28T00:33:32;0.40;99.90
21759;DHT22;11041;50.854;20.580;2023-02-28T00:36:07;0.40;99.90
21759;DHT22;11041;50.854;20.580;2023-02-28T00:38:37;0.40;99.90
21759;DHT22;11041;50.854;20.580;2023-02-28T00:41:05;0.30;99.90
21759;DHT22;11041;50.854;20.580;2023-02-28T00:43:34;0.30;99.90
21759;DHT22;11041;50.854;20.580;2023-02-28T00:46:03;0.20;99.90
21759;DHT22;11041;50.854;20.580;2023-02-28T00:48:31;0.10;99.90
21759;DHT22;11041;50.854;20.580;2023-02-28T00:50:57;0.00;99.90
21759;DHT22;11041;50.854;20.580;2023-02-28T00:53:24;0.00;99.90
21759;DHT22;11041;50.854;20.580;2023-02-28T00:55:51;-0.10;99.90
21759;DHT22;11041;50.854;20.580;2023-02-28T00:58:17;0.00;99.90
21759;DHT22;11041;50.854;20.580;2023-02-28T01:00:44;-0.10;99.90
21759;DHT22;11041;50.854;20.580;2023-02-28T01:03:16;-0.10;99.90
21759;DHT22;11041;50.854;20.580;2023-02-28T01:05:43;-0.10;99.90
21759;DHT22;11041;50.854;20.580;2023-02-28T01:08:10;-0.20;99.90
21759;DHT22;11041;50.854;20.580;2023-02-28T01:10:37;-0.20;99.90
21759;DHT22;11041;50.854;20.580;2023-02-28T01:13:04;-0.20;99.90
21759;DHT22;11041;50.854;20.580;2023-02-28T01:15:32;-0.10;99.90
21759;DHT22;11041;50.854;20.580;2023-02-28T01:17:59;-0.10;99.90
21759;DHT22;11041;50.854;20.580;2023-02-28T01:20:25;-0.20;99.90
21759;DHT22;11041;50.854;20.580;2023-02-28T01:22:52;-0.20;99.90
21759;DHT22;11041;50.854;20.580;2023-02-28T01:25:18;-0.20;99.90
21759;DHT22;11041;50.854;20.580;2023-02-28T01:27:44;-0.20;99.90
21759;DHT22;11041;50.854;20.580;2023-02-28T01:30:11;-0.20;99.90
21759;DHT22;11041;50.854;20.580;2023-02-28T01:32:38;-0.10;99.90
21759;DHT22;11041;50.854;20.580;2023-02-28T01:35:05;-0.10;99.90
21759;DHT22;11041;50.854;20.580;2023-02-28T01:37:31;-0.20;99.90
21759;DHT22;11041;50.854;20.580;2023-02-28T01:39:58;-0.10;99.90
21759;DHT22;11041;50.854;20.580;2023-02-28T01:42:24;-0.10;99.90
21759;DHT22;11041;50.854;20.580;2023-02-28T01:47:55;-0.20;99.90
21759;DHT22;11041;50.854;20.580;2023-02-28T01:50:29;-0.30;99.90
21759;DHT22;11041;50.854;20.580;2023-02-28T01:53:06;-0.30;99.90
21759;DHT22;11041;50.854;20.580;2023-02-28T01:55:36;-0.30;99.90
21759;DHT22;11041;50.854;20.580;2023-02-28T01:58:06;-0.40;99.90
21759;DHT22;11041;50.854;20.580;2023-02-28T02:00:35;-0.20;99.90
21759;DHT22;11041;50.854;20.580;2023-02-28T02:03:13;-0.20;99.90
21759;DHT22;11041;50.854;20.580;2023-02-28T02:05:45;-0.10;99.90
21759;DHT22;11041;50.854;20.580;2023-02-28T02:08:21;-0.10;99.90
21759;DHT22;11041;50.854;20.580;2023-02-28T02:11:03;-0.10;99.90
21759;DHT22;11041;50.854;20.580;2023-02-28T02:13:42;-0.10;99.90
21759;DHT22;11041;50.854;20.580;2023-02-28T02:19:55;-0.10;99.90
21759;DHT22;11041;50.854;20.580;2023-02-28T02:22:33;-0.10;99.90
21759;DHT22;11041;50.854;20.580;2023-02-28T02:35:26;-0.30;99.90
21759;DHT22;11041;50.854;20.580;2023-02-28T02:38:13;-0.20;99.90
21759;DHT22;11041;50.854;20.580;2023-02-28T02:44:21;-0.10;99.90
21759;DHT22;11041;50.854;20.580;2023-02-28T02:47:04;-0.10;99.90
21759;DHT22;11041;50.854;20.580;2023-02-28T02:49:38;-0.20;99.90
21759;DHT22;11041;50.854;20.580;2023-02-28T02:52:11;-0.20;99.90
21759;DHT22;11041;50.854;20.580;2023-02-28T02:54:44;-0.20;99.90
21759;DHT22;11041;50.854;20.580;2023-02-28T02:57:22;-0.30;99.90
21759;DHT22;11041;50.854;20.580;2023-02-28T02:59:54;-0.30;99.90
21759;DHT22;11041;50.854;20.580;2023-02-28T03:02:26;-0.50;99.90
21759;DHT22;11041;50.854;20.580;2023-02-28T03:05:03;-0.60;99.90
21759;DHT22;11041;50.854;20.580;2023-02-28T03:07:32;-0.60;99.90
21759;DHT22;11041;50.854;20.580;2023-02-28T03:09:59;-0.60;99.90
21759;DHT22;11041;50.854;20.580;2023-02-28T03:12:39;-0.50;99.90
21759;DHT22;11041;50.854;20.580;2023-02-28T03:15:23;-0.50;99.90
21759;DHT22;11041;50.854;20.580;2023-02-28T03:18:08;-0.50;99.90
21759;DHT22;11041;50.854;20.580;2023-02-28T03:21:06;-0.50;99.90
21759;DHT22;11041;50.854;20.580;2023-02-28T03:26:43;-0.60;99.90
21759;DHT22;11041;50.854;20.580;2023-02-28T03:29:26;-0.60;99.90
21759;DHT22;11041;50.854;20.580;2023-02-28T03:35:48;-0.50;99.90
21759;DHT22;11041;50.854;20.580;2023-02-28T03:38:27;-0.50;99.90
21759;DHT22;11041;50.854;20.580;2023-02-28T03:41:19;-0.50;99.90
21759;DHT22;11041;50.854;20.580;2023-02-28T03:43:58;-0.60;99.90
21759;DHT22;11041;50.854;20.580;2023-02-28T03:46:32;-0.50;99.90
21759;DHT22;11041;50.854;20.580;2023-02-28T03:51:59;-0.70;99.90
21759;DHT22;11041;50.854;20.580;2023-02-28T03:54:32;-0.70;99.90
21759;DHT22;11041;50.854;20.580;2023-02-28T03:57:18;-0.70;99.90
21759;DHT22;11041;50.854;20.580;2023-02-28T04:00:21;-0.70;99.90
21759;DHT22;11041;50.854;20.580;2023-02-28T04:02:54;-0.80;99.90
21759;DHT22;11041;50.854;20.580;2023-02-28T04:05:22;-0.80;99.90
21759;DHT22;11041;50.854;20.580;2023-02-28T04:07:49;-0.80;99.90
21759;DHT22;11041;50.854;20.580;2023-02-28T04:10:16;-0.80;99.90
21759;DHT22;11041;50.854;20.580;2023-02-28T04:12:43;-0.90;99.90
21759;DHT22;11041;50.854;20.580;2023-02-28T04:15:10;-0.90;99.90
21759;DHT22;11041;50.854;20.580;2023-02-28T04:17:37;-0.90;99.90
21759;DHT22;11041;50.854;20.580;2023-02-28T04:20:04;-1.10;99.90
21759;DHT22;11041;50.854;20.580;2023-02-28T04:22:36;-1.10;99.90
21759;DHT22;11041;50.854;20.580;2023-02-28T04:25:04;-1.10;99.90
21759;DHT22;11041;50.854;20.580;2023-02-28T04:27:31;-1.10;99.90
21759;DHT22;11041;50.854;20.580;2023-02-28T04:29:58;-1.10;99.90
21759;DHT22;11041;50.854;20.580;2023-02-28T04:32:24;-1.10;99.90
21759;DHT22;11041;50.854;20.580;2023-02-28T04:34:51;-1.10;99.90
21759;DHT22;11041;50.854;20.580;2023-02-28T04:37:17;-1.20;99.90
21759;DHT22;11041;50.854;20.580;2023-02-28T04:39:44;-1.20;99.90
21759;DHT22;11041;50.854;20.580;2023-02-28T04:42:11;-1.20;99.90
21759;DHT22;11041;50.854;20.580;2023-02-28T04:44:39;-1.20;99.90
21759;DHT22;11041;50.854;20.580;2023-02-28T04:47:06;-1.20;99.90
21759;DHT22;11041;50.854;20.580;2023-02-28T04:49:32;-1.20;99.90
21759;DHT22;11041;50.854;20.580;2023-02-28T04:51:59;-1.20;99.90
21759;DHT22;11041;50.854;20.580;2023-02-28T04:54:25;-1.30;99.90
21759;DHT22;11041;50.854;20.580;2023-02-28T04:56:52;-1.30;99.90
21759;DHT22;11041;50.854;20.580;2023-02-28T04:59:18;-1.30;99.90
21759;DHT22;11041;50.854;20.580;2023-02-28T05:01:49;-1.30;99.90
21759;DHT22;11041;50.854;20.580;2023-02-28T05:04:15;-1.30;99.90
21759;DHT22;11041;50.854;20.580;2023-02-28T05:06:42;-1.30;99.90
21759;DHT22;11041;50.854;20.580;2023-02-28T05:09:09;-1.30;99.90
21759;DHT22;11041;50.854;20.580;2023-02-28T05:11:39;-1.30;99.90
21759;DHT22;11041;50.854;20.580;2023-02-28T05:14:12;-1.40;99.90
21759;DHT22;11041;50.854;20.580;2023-02-28T05:16:39;-1.40;99.90
21759;DHT22;11041;50.854;20.580;2023-02-28T05:19:06;-1.40;99.90
21759;DHT22;11041;50.854;20.580;2023-02-28T05:21:40;-1.40;99.90
21759;DHT22;11041;50.854;20.580;2023-02-28T05:24:14;-1.40;99.90
21759;DHT22;11041;50.854;20.580;2023-02-28T05:26:42;-1.50;99.90
21759;DHT22;11041;50.854;20.580;2023-02-28T05:29:10;-1.70;99.90
21759;DHT22;11041;50.854;20.580;2023-02-28T05:31:37;-1.70;99.90
21759;DHT22;11041;50.854;20.580;2023-02-28T05:34:05;-1.70;99.90
21759;DHT22;11041;50.854;20.580;2023-02-28T05:36:31;-1.80;99.90
21759;DHT22;11041;50.854;20.580;2023-02-28T05:38:59;-1.70;99.90
21759;DHT22;11041;50.854;20.580;2023-02-28T05:41:25;-1.70;99.90
21759;DHT22;11041;50.854;20.580;2023-02-28T05:43:52;-1.70;99.90
21759;DHT22;11041;50.854;20.580;2023-02-28T05:46:18;-1.60;99.90
21759;DHT22;11041;50.854;20.580;2023-02-28T05:48:47;-1.70;99.90
21759;DHT22;11041;50.854;20.580;2023-02-28T05:51:14;-1.70;99.90
21759;DHT22;11041;50.854;20.580;2023-02-28T05:53:41;-1.70;99.90
21759;DHT22;11041;50.854;20.580;2023-02-28T05:56:08;-1.70;99.90
21759;DHT22;11041;50.854;20.580;2023-02-28T05:58:34;-1.70;99.90
21759;DHT22;11041;50.854;20.580;2023-02-28T06:01:19;-1.80;99.90
21759;DHT22;11041;50.854;20.580;2023-02-28T06:03:51;-1.80;99.90
21759;DHT22;11041;50.854;20.580;2023-02-28T06:06:17;-1.80;99.90
21759;DHT22;11041;50.854;20.580;2023-02-28T06:08:44;-1.80;99.90
21759;DHT22;11041;50.854;20.580;2023-02-28T06:11:11;-2.00;99.90
21759;DHT22;11041;50.854;20.580;2023-02-28T06:13:38;-2.00;99.90
21759;DHT22;11041;50.854;20.580;2023-02-28T06:16:05;-1.90;99.90
21759;DHT22;11041;50.854;20.580;2023-02-28T06:18:32;-1.90;99.90
21759;DHT22;11041;50.854;20.580;2023-02-28T06:20:59;-1.80;99.90
21759;DHT22;11041;50.854;20.580;2023-02-28T06:23:25;-1.80;99.90
21759;DHT22;11041;50.854;20.580;2023-02-28T06:25:52;-1.80;99.90
21759;DHT22;11041;50.854;20.580;2023-02-28T06:28:19;-1.80;99.90
21759;DHT22;11041;50.854;20.580;2023-02-28T06:30:46;-1.70;99.90
21759;DHT22;11041;50.854;20.580;2023-02-28T06:33:12;-1.70;99.90
21759;DHT22;11041;50.854;20.580;2023-02-28T06:35:39;-1.70;99.90
21759;DHT22;11041;50.854;20.580;2023-02-28T06:38:05;-1.60;99.90
21759;DHT22;11041;50.854;20.580;2023-02-28T06:40:32;-1.60;99.90
21759;DHT22;11041;50.854;20.580;2023-02-28T06:43:01;-1.50;99.90
21759;DHT22;11041;50.854;20.580;2023-02-28T06:45:28;-1.50;99.90
21759;DHT22;11041;50.854;20.580;2023-02-28T06:47:55;-1.40;99.90
21759;DHT22;11041;50.854;20.580;2023-02-28T06:50:21;-1.30;99.90
21759;DHT22;11041;50.854;20.580;2023-02-28T06:52:48;-1.20;99.90
21759;DHT22;11041;50.854;20.580;2023-02-28T06:55:14;-1.10;99.90
21759;DHT22;11041;50.854;20.580;2023-02-28T06:57:41;-1.00;99.90
21759;DHT22;11041;50.854;20.580;2023-02-28T07:00:08;-0.90;99.90
21759;DHT22;11041;50.854;20.580;2023-02-28T07:02:36;-0.80;99.90
21759;DHT22;11041;50.854;20.580;2023-02-28T07:05:07;-0.70;99.90
21759;DHT22;11041;50.854;20.580;2023-02-28T07:07:34;-0.50;99.90
21759;DHT22;11041;50.854;20.580;2023-02-28T07:10:02;-0.40;99.90
21759;DHT22;11041;50.854;20.580;2023-02-28T07:12:29;-0.30;99.90
21759;DHT22;11041;50.854;20.580;2023-02-28T07:14:55;-0.30;99.90
21759;DHT22;11041;50.854;20.580;2023-02-28T07:17:22;-0.20;99.90
21759;DHT22;11041;50.854;20.580;2023-02-28T07:19:49;-0.10;99.90
21759;DHT22;11041;50.854;20.580;2023-02-28T07:22:16;0.00;99.90
21759;DHT22;11041;50.854;20.580;2023-02-28T07:24:43;0.00;99.90
21759;DHT22;11041;50.854;20.580;2023-02-28T07:27:09;0.10;99.90
21759;DHT22;11041;50.854;20.580;2023-02-28T07:29:36;0.10;99.90
21759;DHT22;11041;50.854;20.580;2023-02-28T07:32:04;0.20;99.90
21759;DHT22;11041;50.854;20.580;2023-02-28T07:34:30;0.20;99.90
21759;DHT22;11041;50.854;20.580;2023-02-28T07:36:57;0.20;99.90
21759;DHT22;11041;50.854;20.580;2023-02-28T07:39:24;0.30;99.90
21759;DHT22;11041;50.854;20.580;2023-02-28T07:41:50;0.30;99.90
21759;DHT22;11041;50.854;20.580;2023-02-28T07:44:17;0.40;99.90
21759;DHT22;11041;50.854;20.580;2023-02-28T07:46:44;0.40;99.90
21759;DHT22;11041;50.854;20.580;2023-02-28T07:49:11;0.30;99.90
21759;DHT22;11041;50.854;20.580;2023-02-28T07:51:37;0.50;99.90
21759;DHT22;11041;50.854;20.580;2023-02-28T07:54:04;0.50;99.90
21759;DHT22;11041;50.854;20.580;2023-02-28T07:56:31;0.60;99.90
21759;DHT22;11041;50.854;20.580;2023-02-28T07:58:57;0.60;99.90
21759;DHT22;11041;50.854;20.580;2023-02-28T08:01:23;0.50;99.90
21759;DHT22;11041;50.854;20.580;2023-02-28T08:03:50;0.60;99.90
21759;DHT22;11041;50.854;20.580;2023-02-28T08:06:19;0.50;99.90
21759;DHT22;11041;50.854;20.580;2023-02-28T08:08:48;0.50;99.90
21759;DHT22;11041;50.854;20.580;2023-02-28T08:11:15;0.60;99.90
21759;DHT22;11041;50.854;20.580;2023-02-28T08:13:44;0.70;99.90
21759;DHT22;11041;50.854;20.580;2023-02-28T08:16:13;0.70;99.90
21759;DHT22;11041;50.854;20.580;2023-02-28T08:18:52;0.80;99.90
21759;DHT22;11041;50.854;20.580;2023-02-28T08:21:19;0.70;99.90
21759;DHT22;11041;50.854;20.580;2023-02-28T08:23:50;0.70;99.90
21759;DHT22;11041;50.854;20.580;2023-02-28T08:26:18;0.70;99.90
21759;DHT22;11041;50.854;20.580;2023-02-28T08:28:46;0.70;99.90
21759;DHT22;11041;50.854;20.580;2023-02-28T08:31:14;0.80;99.90
21759;DHT22;11041;50.854;20.580;2023-02-28T08:33:43;0.90;99.90
21759;DHT22;11041;50.854;20.580;2023-02-28T08:36:11;1.00;99.90
21759;DHT22;11041;50.854;20.580;2023-02-28T08:38:38;1.10;99.90
21759;DHT22;11041;50.854;20.580;2023-02-28T08:41:08;1.20;99.90
21759;DHT22;11041;50.854;20.580;2023-02-28T08:43:36;1.20;99.90
21759;DHT22;11041;50.854;20.580;2023-02-28T08:46:04;1.30;99.90
21759;DHT22;11041;50.854;20.580;2023-02-28T08:48:33;1.10;99.90
21759;DHT22;11041;50.854;20.580;2023-02-28T08:51:06;1.10;99.90
21759;DHT22;11041;50.854;20.580;2023-02-28T08:53:40;1.00;99.90
21759;DHT22;11041;50.854;20.580;2023-02-28T08:56:09;1.00;99.90
21759;DHT22;11041;50.854;20.580;2023-02-28T08:58:38;1.10;99.90
21759;DHT22;11041;50.854;20.580;2023-02-28T09:01:13;1.20;99.90
21759;DHT22;11041;50.854;20.580;2023-02-28T09:03:45;1.30;99.90
21759;DHT22;11041;50.854;20.580;2023-02-28T09:06:14;1.30;99.90
21759;DHT22;11041;50.854;20.580;2023-02-28T09:08:42;1.30;99.90
21759;DHT22;11041;50.854;20.580;2023-02-28T09:11:10;1.30;99.90
21759;DHT22;11041;50.854;20.580;2023-02-28T09:13:37;1.20;99.90
21759;DHT22;11041;50.854;20.580;2023-02-28T09:16:07;1.50;99.90
21759;DHT22;11041;50.854;20.580;2023-02-28T09:18:37;1.60;99.90
21759;DHT22;11041;50.854;20.580;2023-02-28T09:21:09;1.50;99.90
21759;DHT22;11041;50.854;20.580;2023-02-28T09:23:41;1.70;99.90
21759;DHT22;11041;50.854;20.580;2023-02-28T09:26:17;1.60;99.90
21759;DHT22;11041;50.854;20.580;2023-02-28T09:28:49;1.40;99.90
21759;DHT22;11041;50.854;20.580;2023-02-28T09:31:19;1.50;99.90
21759;DHT22;11041;50.854;20.580;2023-02-28T09:33:52;1.50;99.90
21759;DHT22;11041;50.854;20.580;2023-02-28T09:36:20;1.50;99.90
21759;DHT22;11041;50.854;20.580;2023-02-28T09:38:48;1.60;99.90
21759;DHT22;11041;50.854;20.580;2023-02-28T09:41:27;1.70;99.90
21759;DHT22;11041;50.854;20.580;2023-02-28T09:44:03;1.80;99.90
21759;DHT22;11041;50.854;20.580;2023-02-28T09:46:38;2.00;99.90
21759;DHT22;11041;50.854;20.580;2023-02-28T09:49:17;2.00;99.90
21759;DHT22;11041;50.854;20.580;2023-02-28T09:52:00;1.90;99.90
21759;DHT22;11041;50.854;20.580;2023-02-28T09:54:35;2.00;99.90
21759;DHT22;11041;50.854;20.580;2023-02-28T10:09:08;1.90;99.90
21759;DHT22;11041;50.854;20.580;2023-02-28T10:11:42;1.90;99.90
21759;DHT22;11041;50.854;20.580;2023-02-28T10:14:18;1.90;99.90
21759;DHT22;11041;50.854;20.580;2023-02-28T10:17:08;2.10;99.90
21759;DHT22;11041;50.854;20.580;2023-02-28T10:26:01;2.10;99.90
21759;DHT22;11041;50.854;20.580;2023-02-28T10:28:36;2.30;99.90
21759;DHT22;11041;50.854;20.580;2023-02-28T10:31:02;2.30;99.90
21759;DHT22;11041;50.854;20.580;2023-02-28T10:33:34;2.40;99.90
21759;DHT22;11041;50.854;20.580;2023-02-28T10:36:05;2.20;99.90
21759;DHT22;11041;50.854;20.580;2023-02-28T10:38:38;2.20;99.90
21759;DHT22;11041;50.854;20.580;2023-02-28T10:41:15;2.30;99.90
21759;DHT22;11041;50.854;20.580;2023-02-28T10:44:21;2.50;99.90
21759;DHT22;11041;50.854;20.580;2023-02-28T10:46:50;2.50;99.90
21759;DHT22;11041;50.854;20.580;2023-02-28T10:49:24;2.40;99.90
21759;DHT22;11041;50.854;20.580;2023-02-28T10:51:58;2.40;99.90
21759;DHT22;11041;50.854;20.580;2023-02-28T10:54:32;2.60;99.90
21759;DHT22;11041;50.854;20.580;2023-02-28T10:57:23;2.80;99.90
21759;DHT22;11041;50.854;20.580;2023-02-28T11:00:19;2.90;99.90
21759;DHT22;11041;50.854;20.580;2023-02-28T11:02:48;2.80;99.90
21759;DHT22;11041;50.854;20.580;2023-02-28T11:05:30;2.70;99.50
21759;DHT22;11041;50.854;20.580;2023-02-28T11:08:18;2.80;99.90
21759;DHT22;11041;50.854;20.580;2023-02-28T11:10:48;2.90;98.20
21759;DHT22;11041;50.854;20.580;2023-02-28T11:13:31;2.80;98.50
21759;DHT22;11041;50.854;20.580;2023-02-28T11:16:04;2.80;97.80
21759;DHT22;11041;50.854;20.580;2023-02-28T11:18:59;3.00;99.20
21759;DHT22;11041;50.854;20.580;2023-02-28T11:21:33;3.10;99.90
21759;DHT22;11041;50.854;20.580;2023-02-28T11:24:26;3.40;99.90
21759;DHT22;11041;50.854;20.580;2023-02-28T11:26:56;3.40;99.90
21759;DHT22;11041;50.854;20.580;2023-02-28T11:29:30;3.50;99.90
21759;DHT22;11041;50.854;20.580;2023-02-28T11:34:43;3.50;99.90
21759;DHT22;11041;50.854;20.580;2023-02-28T11:37:20;3.30;95.80
21759;DHT22;11041;50.854;20.580;2023-02-28T11:39:47;3.30;96.80
21759;DHT22;11041;50.854;20.580;2023-02-28T11:57:29;3.80;99.90
21759;DHT22;11041;50.854;20.580;2023-02-28T12:03:31;3.70;96.40
21759;DHT22;11041;50.854;20.580;2023-02-28T12:06:30;3.70;96.70
21759;DHT22;11041;50.854;20.580;2023-02-28T12:12:23;3.60;97.10
21759;DHT22;11041;50.854;20.580;2023-02-28T12:24:12;4.00;95.50
21759;DHT22;11041;50.854;20.580;2023-02-28T12:26:54;3.90;96.40
21759;DHT22;11041;50.854;20.580;2023-02-28T12:29:46;3.90;95.70
21759;DHT22;11041;50.854;20.580;2023-02-28T12:32:43;4.10;95.20
21759;DHT22;11041;50.854;20.580;2023-02-28T12:35:18;4.10;94.30
21759;DHT22;11041;50.854;20.580;2023-02-28T12:38:10;4.20;94.40
21759;DHT22;11041;50.854;20.580;2023-02-28T12:41:22;4.20;94.00
21759;DHT22;11041;50.854;20.580;2023-02-28T12:44:28;4.20;94.40
21759;DHT22;11041;50.854;20.580;2023-02-28T12:47:03;4.60;93.90
21759;DHT22;11041;50.854;20.580;2023-02-28T12:49:42;4.60;93.70
21759;DHT22;11041;50.854;20.580;2023-02-28T12:52:23;4.40;94.20
21759;DHT22;11041;50.854;20.580;2023-02-28T12:55:19;4.40;95.30
21759;DHT22;11041;50.854;20.580;2023-02-28T12:58:20;4.20;96.80
21759;DHT22;11041;50.854;20.580;2023-02-28T13:10:15;5.00;93.10
21759;DHT22;11041;50.854;20.580;2023-02-28T13:12:49;5.10;92.30
21759;DHT22;11041;50.854;20.580;2023-02-28T13:15:21;5.00;93.40
21759;DHT22;11041;50.854;20.580;2023-02-28T13:17:53;4.70;93.30
21759;DHT22;11041;50.854;20.580;2023-02-28T13:20:47;4.80;92.80
21759;DHT22;11041;50.854;20.580;2023-02-28T13:23:57;4.90;92.10
21759;DHT22;11041;50.854;20.580;2023-02-28T13:35:34;5.00;94.50
21759;DHT22;11041;50.854;20.580;2023-02-28T13:37:37;5.10;94.80
21759;DHT22;11041;50.854;20.580;2023-02-28T13:42:48;4.80;94.10
21759;DHT22;11041;50.854;20.580;2023-02-28T13:45:29;4.70;93.30
21759;DHT22;11041;50.854;20.580;2023-02-28T13:48:00;4.90;93.10
21759;DHT22;11041;50.854;20.580;2023-02-28T13:50:37;5.00;93.10
21759;DHT22;11041;50.854;20.580;2023-02-28T14:05:32;4.70;92.50
21759;DHT22;11041;50.854;20.580;2023-02-28T14:08:12;4.70;93.50
21759;DHT22;11041;50.854;20.580;2023-02-28T14:10:48;4.70;94.70
21759;DHT22;11041;50.854;20.580;2023-02-28T14:13:40;4.70;94.60
21759;DHT22;11041;50.854;20.580;2023-02-28T14:16:24;4.70;93.30
21759;DHT22;11041;50.854;20.580;2023-02-28T14:28:28;4.90;94.20
21759;DHT22;11041;50.854;20.580;2023-02-28T14:31:22;4.90;95.10
21759;DHT22;11041;50.854;20.580;2023-02-28T14:37:20;4.90;95.60
21759;DHT22;11041;50.854;20.580;2023-02-28T14:39:53;4.90;94.90
21759;DHT22;11041;50.854;20.580;2023-02-28T14:42:34;4.80;93.40
21759;DHT22;11041;50.854;20.580;2023-02-28T14:45:04;4.70;94.10
21759;DHT22;11041;50.854;20.580;2023-02-28T14:47:33;4.60;94.50
21759;DHT22;11041;50.854;20.580;2023-02-28T14:50:03;4.60;95.60
21759;DHT22;11041;50.854;20.580;2023-02-28T14:52:32;4.60;93.80
21759;DHT22;11041;50.854;20.580;2023-02-28T14:55:05;4.60;94.60
21759;DHT22;11041;50.854;20.580;2023-02-28T14:58:00;4.60;97.60
21759;DHT22;11041;50.854;20.580;2023-02-28T15:00:53;4.60;97.60
21759;DHT22;11041;50.854;20.580;2023-02-28T15:03:27;4.60;98.10
21759;DHT22;11041;50.854;20.580;2023-02-28T15:06:03;4.50;96.50
21759;DHT22;11041;50.854;20.580;2023-02-28T15:08:40;4.40;96.40
21759;DHT22;11041;50.854;20.580;2023-02-28T15:11:15;4.40;96.90
21759;DHT22;11041;50.854;20.580;2023-02-28T15:13:54;4.40;97.80
21759;DHT22;11041;50.854;20.580;2023-02-28T15:21:58;4.10;99.10
21759;DHT22;11041;50.854;20.580;2023-02-28T15:24:49;3.90;96.90
21759;DHT22;11041;50.854;20.580;2023-02-28T15:27:27;3.90;99.90
21759;DHT22;11041;50.854;20.580;2023-02-28T15:30:00;3.90;99.90
21759;DHT22;11041;50.854;20.580;2023-02-28T15:32:34;3.90;99.90
21759;DHT22;11041;50.854;20.580;2023-02-28T15:38:02;3.70;99.90
21759;DHT22;11041;50.854;20.580;2023-02-28T15:40:57;3.60;99.90
21759;DHT22;11041;50.854;20.580;2023-02-28T15:46:10;3.50;99.90
21759;DHT22;11041;50.854;20.580;2023-02-28T15:48:51;3.30;99.90
21759;DHT22;11041;50.854;20.580;2023-02-28T15:51:39;3.20;99.90
21759;DHT22;11041;50.854;20.580;2023-02-28T15:54:10;3.10;99.90
21759;DHT22;11041;50.854;20.580;2023-02-28T15:56:55;3.00;99.90
21759;DHT22;11041;50.854;20.580;2023-02-28T15:59:28;3.00;99.90
21759;DHT22;11041;50.854;20.580;2023-02-28T16:02:13;2.80;99.90
21759;DHT22;11041;50.854;20.580;2023-02-28T16:07:39;2.70;99.90
21759;DHT22;11041;50.854;20.580;2023-02-28T16:10:10;2.60;99.90
21759;DHT22;11041;50.854;20.580;2023-02-28T16:12:41;2.50;99.90
21759;DHT22;11041;50.854;20.580;2023-02-28T16:15:19;2.40;99.90
21759;DHT22;11041;50.854;20.580;2023-02-28T16:17:48;2.30;99.90
21759;DHT22;11041;50.854;20.580;2023-02-28T16:20:21;2.20;99.90
21759;DHT22;11041;50.854;20.580;2023-02-28T16:22:50;2.00;99.90
21759;DHT22;11041;50.854;20.580;2023-02-28T16:25:20;2.00;99.90
21759;DHT22;11041;50.854;20.580;2023-02-28T16:27:51;1.80;99.90
21759;DHT22;11041;50.854;20.580;2023-02-28T16:30:22;1.80;99.90
21759;DHT22;11041;50.854;20.580;2023-02-28T16:32:51;1.70;99.90
21759;DHT22;11041;50.854;20.580;2023-02-28T16:35:19;1.60;99.90
21759;DHT22;11041;50.854;20.580;2023-02-28T16:37:47;1.50;99.90
21759;DHT22;11041;50.854;20.580;2023-02-28T16:40:20;1.30;99.90
21759;DHT22;11041;50.854;20.580;2023-02-28T16:42:51;1.30;99.90
21759;DHT22;11041;50.854;20.580;2023-02-28T16:45:25;1.30;99.90
21759;DHT22;11041;50.854;20.580;2023-02-28T16:47:53;1.20;99.90
21759;DHT22;11041;50.854;20.580;2023-02-28T16:50:23;1.20;99.90
21759;DHT22;11041;50.854;20.580;2023-02-28T16:52:52;1.10;99.90
21759;DHT22;11041;50.854;20.580;2023-02-28T16:55:21;1.00;99.90
21759;DHT22;11041;50.854;20.580;2023-02-28T16:57:53;1.00;99.90
21759;DHT22;11041;50.854;20.580;2023-02-28T17:00:22;0.90;99.90
21759;DHT22;11041;50.854;20.580;2023-02-28T17:02:51;0.80;99.90
21759;DHT22;11041;50.854;20.580;2023-02-28T17:05:18;0.80;99.90
21759;DHT22;11041;50.854;20.580;2023-02-28T17:07:45;0.70;99.90
21759;DHT22;11041;50.854;20.580;2023-02-28T17:12:45;0.50;99.90
21759;DHT22;11041;50.854;20.580;2023-02-28T17:15:13;0.40;99.90
21759;DHT22;11041;50.854;20.580;2023-02-28T17:17:42;0.30;99.90
21759;DHT22;11041;50.854;20.580;2023-02-28T17:20:13;0.30;99.90
21759;DHT22;11041;50.854;20.580;2023-02-28T17:22:41;0.10;99.90
21759;DHT22;11041;50.854;20.580;2023-02-28T17:25:09;0.10;99.90
21759;DHT22;11041;50.854;20.580;2023-02-28T17:27:36;0.00;99.90
21759;DHT22;11041;50.854;20.580;2023-02-28T17:32:57;0.00;99.90
21759;DHT22;11041;50.854;20.580;2023-02-28T17:35:23;0.00;99.90
21759;DHT22;11041;50.854;20.580;2023-02-28T17:37:52;0.00;99.90
21759;DHT22;11041;50.854;20.580;2023-02-28T17:40:21;0.00;99.90
21759;DHT22;11041;50.854;20.580;2023-02-28T17:42:49;0.00;99.90
21759;DHT22;11041;50.854;20.580;2023-02-28T17:45:18;0.00;99.90
21759;DHT22;11041;50.854;20.580;2023-02-28T17:47:48;0.00;99.90
21759;DHT22;11041;50.854;20.580;2023-02-28T17:50:19;-0.10;99.90
21759;DHT22;11041;50.854;20.580;2023-02-28T17:52:47;-0.20;99.90
21759;DHT22;11041;50.854;20.580;2023-02-28T17:55:16;-0.20;99.90
21759;DHT22;11041;50.854;20.580;2023-02-28T17:57:45;-0.30;99.90
21759;DHT22;11041;50.854;20.580;2023-02-28T18:00:14;-0.30;99.90
21759;DHT22;11041;50.854;20.580;2023-02-28T18:02:44;-0.40;99.90
21759;DHT22;11041;50.854;20.580;2023-02-28T18:05:11;-0.40;99.90
21759;DHT22;11041;50.854;20.580;2023-02-28T18:07:38;-0.50;99.90
21759;DHT22;11041;50.854;20.580;2023-02-28T18:10:11;0.70;99.90
21759;DHT22;11041;50.854;20.580;2023-02-28T18:12:42;-0.50;99.90
21759;DHT22;11041;50.854;20.580;2023-02-28T18:15:08;-0.60;99.90
21759;DHT22;11041;50.854;20.580;2023-02-28T18:17:36;-0.70;99.90
21759;DHT22;11041;50.854;20.580;2023-02-28T18:20:02;-0.80;99.90
21759;DHT22;11041;50.854;20.580;2023-02-28T18:22:30;-0.80;99.90
21759;DHT22;11041;50.854;20.580;2023-02-28T18:24:58;-0.70;99.90